Amstenrade, Netherlands
Current Conditions -  °F | °C
As of 5:50 PM on Thursday 23 Oct 2014 (Local Time) from ETNG Reporting Station
Broken Clouds Broken Clouds  
Wind Chill: 55°   Ceiling: 3800
Heat Index: 55°   Visibility: 6mi
Dew Point: 50°   Wind: 7mph
Humidity: 82%   Direction: 230°SW
Pressure: 30.21"   Gusts: NA
Location:  50.94°N, 5.92°E
Report Text: ETNG 231550Z 23006KT 9999 FEW025 BKN038 13/10 Q1023 NOSIG
Loading
Personal Weather Stations






























Interactive Weather Map
Tropical Storm Tracking
New forecast layout! Learn more

10-Day Weather Forecast

Advertisements
Track Severe Weather on mobile